Time,TemperatureF,DewpointF,PressureIn,WindDirection,WindDirectionDegrees,WindSpeedMPH,WindSpeedGustMPH,Humidity,HourlyPrecipIn,Conditions,Clouds,dailyrainin,SoftwareType,DateUTC
2013-04-09 00:04:00,72.3,64.4,29.89,SE,135,3.1,5.4,76,0.00,,,0.00,WUHU216EASYWX,2013-04-09 04:04:00,
2013-04-09 00:09:00,72.3,64.4,29.89,SE,135,3.1,5.4,76,0.00,,,0.00,WUHU216EASYWX,2013-04-09 04:09:00,
2013-04-09 00:14:00,72.0,64.4,29.89,SE,135,3.8,6.9,77,0.00,,,0.00,WUHU216EASYWX,2013-04-09 04:14:00,
2013-04-09 00:19:00,72.0,64.4,29.89,SE,135,3.8,6.9,77,0.00,,,0.00,WUHU216EASYWX,2013-04-09 04:19:00,
2013-04-09 00:24:00,71.8,64.6,29.89,SE,135,2.2,5.4,78,0.00,,,0.00,WUHU216EASYWX,2013-04-09 04:24:00,
2013-04-09 00:29:00,71.8,64.6,29.89,SE,135,2.2,5.4,78,0.00,,,0.00,WUHU216EASYWX,2013-04-09 04:29:00,
2013-04-09 00:39:00,71.6,64.8,29.89,SE,135,2.2,4.5,79,0.00,,,0.00,WUHU216EASYWX,2013-04-09 04:39:00,
2013-04-09 00:44:00,71.2,64.8,29.89,SE,135,2.2,3.1,80,0.00,,,0.00,WUHU216EASYWX,2013-04-09 04:44:00,
2013-04-09 00:49:00,71.2,64.8,29.89,SE,135,2.2,3.1,80,0.00,,,0.00,WUHU216EASYWX,2013-04-09 04:49:00,
2013-04-09 00:54:00,71.2,65.1,29.89,SE,135,1.6,3.8,81,0.00,,,0.00,WUHU216EASYWX,2013-04-09 04:54:00,
2013-04-09 00:59:00,71.2,65.1,29.89,SE,135,1.6,3.8,81,0.00,,,0.00,WUHU216EASYWX,2013-04-09 04:59:00,
2013-04-09 01:04:00,71.1,65.3,29.89,East,90,2.2,4.5,82,0.00,,,0.00,WUHU216EASYWX,2013-04-09 05:04:00,
2013-04-09 01:09:00,71.1,65.3,29.89,East,90,2.2,4.5,82,0.00,,,0.00,WUHU216EASYWX,2013-04-09 05:09:00,
2013-04-09 01:19:00,70.7,65.7,29.88,SE,135,2.2,3.8,84,0.00,,,0.00,WUHU216EASYWX,2013-04-09 05:19:00,
2013-04-09 01:24:00,70.5,65.8,29.88,East,90,2.2,5.4,85,0.00,,,0.00,WUHU216EASYWX,2013-04-09 05:24:00,
2013-04-09 01:29:00,70.5,65.8,29.88,East,90,2.2,5.4,85,0.00,,,0.00,WUHU216EASYWX,2013-04-09 05:29:00,
2013-04-09 01:34:00,70.2,66.2,29.88,SE,135,1.6,3.1,87,0.00,,,0.00,WUHU216EASYWX,2013-04-09 05:34:00,
2013-04-09 01:39:00,70.2,66.2,29.88,SE,135,1.6,3.1,87,0.00,,,0.00,WUHU216EASYWX,2013-04-09 05:39:00,
2013-04-09 01:44:00,70.2,66.2,29.87,East,90,0.7,2.2,87,0.00,,,0.00,WUHU216EASYWX,2013-04-09 05:44:00,
2013-04-09 01:49:00,70.2,66.2,29.87,East,90,0.7,2.2,87,0.00,,,0.00,WUHU216EASYWX,2013-04-09 05:49:00,
2013-04-09 01:59:00,70.2,66.2,29.87,SE,135,3.1,6.0,87,0.00,,,0.00,WUHU216EASYWX,2013-04-09 05:59:00,
2013-04-09 02:04:00,70.0,66.4,29.86,SE,135,3.8,6.9,88,0.00,,,0.00,WUHU216EASYWX,2013-04-09 06:04:00,
2013-04-09 02:09:00,70.0,66.4,29.86,SE,135,3.8,6.9,88,0.00,,,0.00,WUHU216EASYWX,2013-04-09 06:09:00,
2013-04-09 02:14:00,70.0,66.6,29.86,NE,45,2.2,3.8,89,0.00,,,0.00,WUHU216EASYWX,2013-04-09 06:14:00,
2013-04-09 02:19:00,70.0,66.6,29.86,NE,45,2.2,3.8,89,0.00,,,0.00,WUHU216EASYWX,2013-04-09 06:19:00,
2013-04-09 02:24:00,69.8,66.4,29.86,East,90,2.2,5.4,89,0.00,,,0.00,WUHU216EASYWX,2013-04-09 06:24:00,
2013-04-09 02:29:00,69.8,66.4,29.86,East,90,2.2,5.4,89,0.00,,,0.00,WUHU216EASYWX,2013-04-09 06:29:00,
2013-04-09 02:39:00,69.4,66.7,29.85,SE,135,2.2,5.4,91,0.00,,,0.00,WUHU216EASYWX,2013-04-09 06:39:00,
2013-04-09 02:44:00,69.3,66.9,29.85,SE,135,3.1,5.4,92,0.00,,,0.00,WUHU216EASYWX,2013-04-09 06:44:00,
2013-04-09 02:49:00,69.3,66.9,29.85,SE,135,3.1,4.5,92,0.00,,,0.00,WUHU216EASYWX,2013-04-09 06:49:00,
2013-04-09 02:54:00,69.3,66.9,29.85,SE,135,5.4,7.6,92,0.00,,,0.00,WUHU216EASYWX,2013-04-09 06:54:00,
2013-04-09 02:59:00,69.3,66.9,29.85,SE,135,5.4,7.6,92,0.00,,,0.00,WUHU216EASYWX,2013-04-09 06:59:00,
2013-04-09 03:04:00,69.3,66.9,29.84,ESE,113,2.2,4.5,92,0.00,,,0.00,WUHU216EASYWX,2013-04-09 07:04:00,
2013-04-09 03:09:00,69.3,66.9,29.84,ESE,113,2.2,4.5,92,0.00,,,0.00,WUHU216EASYWX,2013-04-09 07:09:00,
2013-04-09 03:19:00,68.9,66.9,29.84,SE,135,2.2,3.1,93,0.00,,,0.00,WUHU216EASYWX,2013-04-09 07:19:00,
2013-04-09 03:24:00,68.5,66.7,29.84,ENE,68,3.1,6.9,94,0.00,,,0.00,WUHU216EASYWX,2013-04-09 07:24:00,
2013-04-09 03:29:00,68.5,66.7,29.84,ENE,68,3.1,6.9,94,0.00,,,0.00,WUHU216EASYWX,2013-04-09 07:29:00,
2013-04-09 03:34:00,68.2,67.1,29.83,SE,135,1.6,3.1,96,0.00,,,0.00,WUHU216EASYWX,2013-04-09 07:34:00,
2013-04-09 03:39:00,68.2,67.1,29.83,SE,135,1.6,3.1,96,0.00,,,0.00,WUHU216EASYWX,2013-04-09 07:39:00,
2013-04-09 03:44:00,68.2,67.6,29.83,SE,135,1.6,3.1,98,0.00,,,0.00,WUHU216EASYWX,2013-04-09 07:44:00,
2013-04-09 03:49:00,68.2,67.6,29.83,SE,135,1.6,3.1,98,0.00,,,0.00,WUHU216EASYWX,2013-04-09 07:49:00,
2013-04-09 03:54:00,68.0,67.5,29.83,East,90,0.0,3.1,98,0.00,,,0.00,WUHU216EASYWX,2013-04-09 07:54:00,
2013-04-09 03:59:00,68.0,67.5,29.83,East,90,0.0,3.1,98,0.00,,,0.00,WUHU216EASYWX,2013-04-09 07:59:00,
2013-04-09 04:09:00,67.6,67.5,29.83,East,90,1.6,3.1,99,0.00,,,0.00,WUHU216EASYWX,2013-04-09 08:09:00,
2013-04-09 04:14:00,67.6,67.5,29.83,East,90,1.6,3.1,99,0.00,,,0.00,WUHU216EASYWX,2013-04-09 08:14:00,
2013-04-09 04:19:00,67.6,67.5,29.83,East,90,1.6,3.1,99,0.00,,,0.00,WUHU216EASYWX,2013-04-09 08:19:00,
2013-04-09 04:24:00,67.5,67.3,29.84,East,90,0.7,1.6,99,0.00,,,0.00,WUHU216EASYWX,2013-04-09 08:24:00,
2013-04-09 04:29:00,67.5,67.3,29.84,East,90,0.7,1.6,99,0.00,,,0.00,WUHU216EASYWX,2013-04-09 08:29:00,
2013-04-09 04:34:00,67.5,67.3,29.84,East,90,0.7,2.2,99,0.00,,,0.00,WUHU216EASYWX,2013-04-09 08:34:00,
2013-04-09 04:39:00,67.5,67.3,29.84,East,90,0.7,2.2,99,0.00,,,0.00,WUHU216EASYWX,2013-04-09 08:39:00,
2013-04-09 04:49:00,67.5,67.3,29.83,NE,45,1.6,2.2,99,0.00,,,0.00,WUHU216EASYWX,2013-04-09 08:49:00,
2013-04-09 04:54:00,67.1,66.9,29.84,East,90,0.7,2.2,99,0.00,,,0.00,WUHU216EASYWX,2013-04-09 08:54:00,
2013-04-09 04:59:00,67.1,66.9,29.84,East,90,0.7,2.2,99,0.00,,,0.00,WUHU216EASYWX,2013-04-09 08:59:00,
2013-04-09 05:05:00,67.1,66.9,29.83,NE,45,0.7,1.6,99,0.00,,,0.00,WUHU216EASYWX,2013-04-09 09:05:00,
2013-04-09 05:10:00,67.1,66.9,29.83,NE,45,0.7,1.6,99,0.00,,,0.00,WUHU216EASYWX,2013-04-09 09:10:00,
2013-04-09 05:15:00,66.9,66.7,29.83,NE,45,1.6,2.2,99,0.00,,,0.00,WUHU216EASYWX,2013-04-09 09:15:00,
2013-04-09 05:20:00,66.9,66.7,29.83,NE,45,1.6,2.2,99,0.00,,,0.00,WUHU216EASYWX,2013-04-09 09:20:00,
2013-04-09 05:29:00,66.9,66.7,29.83,East,90,0.7,2.2,99,0.00,,,0.00,WUHU216EASYWX,2013-04-09 09:29:00,
2013-04-09 05:34:00,66.9,66.7,29.84,SE,135,1.6,4.5,99,0.00,,,0.00,WUHU216EASYWX,2013-04-09 09:34:00,
2013-04-09 05:39:00,66.9,66.7,29.84,SE,135,1.6,4.5,99,0.00,,,0.00,WUHU216EASYWX,2013-04-09 09:39:00,
2013-04-09 05:44:00,67.1,66.9,29.83,East,90,1.6,3.1,99,0.00,,,0.00,WUHU216EASYWX,2013-04-09 09:44:00,
2013-04-09 05:49:00,67.1,66.9,29.83,East,90,1.6,3.1,99,0.00,,,0.00,WUHU216EASYWX,2013-04-09 09:49:00,
2013-04-09 05:54:00,67.1,66.9,29.84,East,90,1.6,3.1,99,0.00,,,0.00,WUHU216EASYWX,2013-04-09 09:54:00,
2013-04-09 05:59:00,67.1,66.9,29.84,East,90,1.6,3.1,99,0.00,,,0.00,WUHU216EASYWX,2013-04-09 09:59:00,
2013-04-09 06:09:00,67.1,66.9,29.84,East,90,2.2,3.1,99,0.00,,,0.00,WUHU216EASYWX,2013-04-09 10:09:00,
2013-04-09 06:15:00,66.9,66.7,29.85,ENE,68,1.6,3.1,99,0.00,,,0.00,WUHU216EASYWX,2013-04-09 10:15:00,
2013-04-09 06:20:00,66.9,66.7,29.85,ENE,68,1.6,3.1,99,0.00,,,0.00,WUHU216EASYWX,2013-04-09 10:20:00,
2013-04-09 06:25:00,66.9,66.7,29.84,East,90,2.2,3.8,99,0.00,,,0.00,WUHU216EASYWX,2013-04-09 10:25:00,
2013-04-09 06:30:00,66.9,66.7,29.84,East,90,2.2,3.8,99,0.00,,,0.00,WUHU216EASYWX,2013-04-09 10:30:00,
2013-04-09 06:35:00,66.9,66.7,29.84,East,90,2.2,4.5,99,0.00,,,0.00,WUHU216EASYWX,2013-04-09 10:35:00,
2013-04-09 06:40:00,66.9,66.7,29.84,East,90,2.2,4.5,99,0.00,,,0.00,WUHU216EASYWX,2013-04-09 10:40:00,
2013-04-09 06:49:00,66.9,66.7,29.85,SE,135,0.7,2.2,99,0.00,,,0.00,WUHU216EASYWX,2013-04-09 10:49:00,
2013-04-09 06:54:00,66.9,66.7,29.86,ENE,68,2.2,3.1,99,0.00,,,0.00,WUHU216EASYWX,2013-04-09 10:54:00,
2013-04-09 06:59:00,66.9,66.7,29.86,ENE,68,2.2,3.1,99,0.00,,,0.00,WUHU216EASYWX,2013-04-09 10:59:00,
2013-04-09 07:04:00,66.9,66.7,29.86,NE,45,1.6,3.1,99,0.00,,,0.00,WUHU216EASYWX,2013-04-09 11:04:00,
2013-04-09 07:09:00,66.9,66.7,29.86,NE,45,1.6,3.1,99,0.00,,,0.00,WUHU216EASYWX,2013-04-09 11:09:00,
2013-04-09 07:14:00,66.6,66.4,29.86,NE,45,1.6,3.1,99,0.00,,,0.00,WUHU216EASYWX,2013-04-09 11:14:00,
2013-04-09 07:19:00,66.6,66.4,29.86,NE,45,1.6,3.1,99,0.00,,,0.00,WUHU216EASYWX,2013-04-09 11:19:00,
2013-04-09 07:29:00,66.2,66.0,29.87,NE,45,0.7,1.6,99,0.00,,,0.00,WUHU216EASYWX,2013-04-09 11:29:00,
2013-04-09 07:34:00,66.2,66.0,29.87,NE,45,0.7,2.2,99,0.00,,,0.00,WUHU216EASYWX,2013-04-09 11:34:00,
2013-04-09 07:39:00,66.2,66.0,29.87,NE,45,0.7,2.2,99,0.00,,,0.00,WUHU216EASYWX,2013-04-09 11:39:00,
2013-04-09 07:44:00,66.2,66.0,29.87,NE,45,0.7,1.6,99,0.00,,,0.00,WUHU216EASYWX,2013-04-09 11:44:00,
2013-04-09 07:49:00,66.2,66.0,29.87,NE,45,0.7,1.6,99,0.00,,,0.00,WUHU216EASYWX,2013-04-09 11:49:00,
2013-04-09 07:54:00,67.3,67.1,29.87,East,90,2.2,3.8,99,0.00,,,0.00,WUHU216EASYWX,2013-04-09 11:54:00,
2013-04-09 07:59:00,67.3,67.1,29.87,East,90,2.2,3.8,99,0.00,,,0.00,WUHU216EASYWX,2013-04-09 11:59:00,
2013-04-09 08:04:00,68.7,68.5,29.87,South,180,0.7,2.2,99,0.00,,,0.00,WUHU216EASYWX,2013-04-09 12:04:00,
2013-04-09 08:09:00,68.7,68.5,29.87,South,180,0.7,2.2,99,0.00,,,0.00,WUHU216EASYWX,2013-04-09 12:09:00,
2013-04-09 08:19:00,69.8,69.3,29.87,East,90,0.7,3.8,98,0.00,,,0.00,WUHU216EASYWX,2013-04-09 12:19:00,
2013-04-09 08:24:00,70.5,69.4,29.87,East,90,0.0,0.7,96,0.00,,,0.00,WUHU216EASYWX,2013-04-09 12:24:00,
2013-04-09 08:29:00,70.5,69.4,29.87,East,90,0.0,0.7,96,0.00,,,0.00,WUHU216EASYWX,2013-04-09 12:29:00,
2013-04-09 08:34:00,70.9,69.1,29.88,East,90,1.6,3.1,94,0.00,,,0.00,WUHU216EASYWX,2013-04-09 12:34:00,
2013-04-09 08:39:00,70.9,69.1,29.88,East,90,1.6,3.1,94,0.00,,,0.00,WUHU216EASYWX,2013-04-09 12:39:00,
2013-04-09 08:44:00,71.8,69.4,29.88,SE,135,2.2,3.1,92,0.00,,,0.00,WUHU216EASYWX,2013-04-09 12:44:00,
2013-04-09 08:49:00,71.8,69.4,29.88,SE,135,2.2,3.1,92,0.00,,,0.00,WUHU216EASYWX,2013-04-09 12:49:00,
2013-04-09 08:59:00,73.6,69.3,29.89,NE,45,3.8,6.9,86,0.00,,,0.00,WUHU216EASYWX,2013-04-09 12:59:00,
2013-04-09 09:04:00,74.3,69.6,29.88,East,90,3.8,6.9,85,0.00,,,0.00,WUHU216EASYWX,2013-04-09 13:04:00,
2013-04-09 09:09:00,74.3,69.6,29.88,East,90,3.8,6.9,85,0.00,,,0.00,WUHU216EASYWX,2013-04-09 13:09:00,
2013-04-09 09:14:00,75.6,69.8,29.88,ESE,113,1.6,4.5,82,0.00,,,0.00,WUHU216EASYWX,2013-04-09 13:14:00,
2013-04-09 09:19:00,75.6,69.8,29.88,ESE,113,1.6,4.5,82,0.00,,,0.00,WUHU216EASYWX,2013-04-09 13:19:00,
2013-04-09 09:24:00,75.9,69.4,29.88,SE,135,3.1,6.0,80,0.00,,,0.00,WUHU216EASYWX,2013-04-09 13:24:00,
2013-04-09 09:29:00,75.9,69.4,29.88,SE,135,3.1,6.0,80,0.00,,,0.00,WUHU216EASYWX,2013-04-09 13:29:00,
2013-04-09 09:34:00,76.6,68.9,29.89,North,0,3.8,8.3,77,0.00,,,0.00,WUHU216EASYWX,2013-04-09 13:34:00,
2013-04-09 09:39:00,76.6,68.9,29.89,North,0,3.8,8.3,77,0.00,,,0.00,WUHU216EASYWX,2013-04-09 13:39:00,
2013-04-09 09:49:00,75.4,68.5,29.89,ENE,68,5.4,9.2,79,0.00,,,0.00,WUHU216EASYWX,2013-04-09 13:49:00,
2013-04-09 09:54:00,75.0,68.5,29.89,NE,45,2.2,4.5,80,0.00,,,0.00,WUHU216EASYWX,2013-04-09 13:54:00,
2013-04-09 09:59:00,75.0,68.5,29.89,NE,45,2.2,4.5,80,0.00,,,0.00,WUHU216EASYWX,2013-04-09 13:59:00,
2013-04-09 10:04:00,75.4,68.9,29.90,East,90,1.6,3.1,80,0.00,,,0.00,WUHU216EASYWX,2013-04-09 14:04:00,
2013-04-09 10:09:00,75.4,68.9,29.90,East,90,1.6,3.1,80,0.00,,,0.00,WUHU216EASYWX,2013-04-09 14:09:00,
2013-04-09 10:14:00,75.9,68.9,29.90,South,180,0.7,3.8,79,0.00,,,0.00,WUHU216EASYWX,2013-04-09 14:14:00,
2013-04-09 10:19:00,75.9,68.9,29.90,South,180,0.7,3.8,79,0.00,,,0.00,WUHU216EASYWX,2013-04-09 14:19:00,
2013-04-09 10:29:00,76.3,68.9,29.90,SE,135,3.1,5.4,78,0.00,,,0.00,WUHU216EASYWX,2013-04-09 14:29:00,
2013-04-09 10:34:00,76.1,69.1,29.90,SE,135,3.8,6.9,79,0.00,,,0.00,WUHU216EASYWX,2013-04-09 14:34:00,
2013-04-09 10:39:00,76.1,69.1,29.90,SE,135,3.8,6.9,79,0.00,,,0.00,WUHU216EASYWX,2013-04-09 14:39:00,
2013-04-09 10:44:00,76.5,69.4,29.91,SE,135,3.8,7.6,79,0.00,,,0.00,WUHU216EASYWX,2013-04-09 14:44:00,
2013-04-09 10:49:00,76.5,69.4,29.91,SE,135,3.8,7.6,79,0.00,,,0.00,WUHU216EASYWX,2013-04-09 14:49:00,
2013-04-09 10:54:00,79.3,69.6,29.91,ENE,68,3.8,6.0,72,0.00,,,0.00,WUHU216EASYWX,2013-04-09 14:54:00,
2013-04-09 10:59:00,79.3,69.6,29.91,ENE,68,3.8,6.0,72,0.00,,,0.00,WUHU216EASYWX,2013-04-09 14:59:00,
2013-04-09 11:09:00,80.2,69.6,29.91,East,90,5.4,7.6,70,0.00,,,0.00,WUHU216EASYWX,2013-04-09 15:09:00,
2013-04-09 11:14:00,81.9,68.5,29.91,East,90,6.0,11.4,64,0.00,,,0.00,WUHU216EASYWX,2013-04-09 15:14:00,
2013-04-09 11:19:00,81.9,68.5,29.91,East,90,6.0,11.4,64,0.00,,,0.00,WUHU216EASYWX,2013-04-09 15:19:00,
2013-04-09 11:24:00,81.0,69.1,29.91,South,180,6.0,9.9,67,0.00,,,0.00,WUHU216EASYWX,2013-04-09 15:24:00,
2013-04-09 11:30:00,81.0,69.1,29.91,South,180,6.0,9.9,67,0.00,,,0.00,WUHU216EASYWX,2013-04-09 15:30:00,
2013-04-09 11:35:00,82.6,69.3,29.91,SW,225,3.1,6.9,64,0.00,,,0.00,WUHU216EASYWX,2013-04-09 15:35:00,
2013-04-09 11:40:00,82.6,69.3,29.91,SW,225,3.1,6.9,64,0.00,,,0.00,WUHU216EASYWX,2013-04-09 15:40:00,
2013-04-09 11:45:00,82.6,67.3,29.91,North,0,6.0,8.3,60,0.00,,,0.00,WUHU216EASYWX,2013-04-09 15:45:00,
2013-04-09 11:50:00,82.6,67.3,29.91,North,0,6.0,8.3,60,0.00,,,0.00,WUHU216EASYWX,2013-04-09 15:50:00,
2013-04-09 11:59:00,81.9,66.7,29.90,South,180,5.4,10.8,60,0.00,,,0.00,WUHU216EASYWX,2013-04-09 15:59:00,
2013-04-09 12:04:00,82.6,67.3,29.90,SE,135,3.8,9.2,60,0.00,,,0.00,WUHU216EASYWX,2013-04-09 16:04:00,
2013-04-09 12:09:00,82.6,67.3,29.90,SE,135,3.8,9.2,60,0.00,,,0.00,WUHU216EASYWX,2013-04-09 16:09:00,
2013-04-09 12:14:00,85.1,66.6,29.90,SE,135,3.8,6.9,54,0.00,,,0.00,WUHU216EASYWX,2013-04-09 16:14:00,
2013-04-09 12:19:00,85.1,66.6,29.90,SE,135,3.8,6.9,54,0.00,,,0.00,WUHU216EASYWX,2013-04-09 16:19:00,
2013-04-09 12:24:00,83.3,66.0,29.90,East,90,6.0,11.4,56,0.00,,,0.00,WUHU216EASYWX,2013-04-09 16:24:00,
2013-04-09 12:29:00,83.3,66.0,29.90,East,90,6.0,11.4,56,0.00,,,0.00,WUHU216EASYWX,2013-04-09 16:29:00,
2013-04-09 12:39:00,84.0,65.7,29.90,SE,135,3.8,6.0,54,0.00,,,0.00,WUHU216EASYWX,2013-04-09 16:39:00,
2013-04-09 12:44:00,84.9,64.8,29.89,SW,225,4.5,8.3,51,0.00,,,0.00,WUHU216EASYWX,2013-04-09 16:44:00,
2013-04-09 12:49:00,84.9,64.8,29.89,SW,225,4.5,8.3,51,0.00,,,0.00,WUHU216EASYWX,2013-04-09 16:49:00,
2013-04-09 12:54:00,85.5,63.0,29.89,South,180,6.9,11.4,47,0.00,,,0.00,WUHU216EASYWX,2013-04-09 16:54:00,
2013-04-09 12:59:00,85.5,63.0,29.89,South,180,6.9,11.4,47,0.00,,,0.00,WUHU216EASYWX,2013-04-09 16:59:00,
2013-04-09 13:04:00,86.2,63.0,29.88,NNE,23,7.6,12.1,46,0.00,,,0.00,WUHU216EASYWX,2013-04-09 17:04:00,
2013-04-09 13:09:00,86.2,63.0,29.88,NNE,23,7.6,12.1,46,0.00,,,0.00,WUHU216EASYWX,2013-04-09 17:09:00,
2013-04-09 13:14:00,84.6,62.8,29.88,South,180,6.0,9.2,48,0.00,,,0.00,WUHU216EASYWX,2013-04-09 17:14:00,
2013-04-09 13:19:00,84.6,62.8,29.88,South,180,6.0,9.2,48,0.00,,,0.00,WUHU216EASYWX,2013-04-09 17:19:00,
2013-04-09 13:29:00,86.4,63.1,29.87,SE,135,3.8,8.3,46,0.00,,,0.00,WUHU216EASYWX,2013-04-09 17:29:00,
2013-04-09 13:34:00,86.4,63.9,29.87,SE,135,3.1,5.4,47,0.00,,,0.00,WUHU216EASYWX,2013-04-09 17:34:00,
2013-04-09 13:39:00,86.4,63.9,29.87,SE,135,3.1,5.4,47,0.00,,,0.00,WUHU216EASYWX,2013-04-09 17:39:00,
2013-04-09 13:44:00,86.7,62.2,29.86,East,90,4.5,6.9,44,0.00,,,0.00,WUHU216EASYWX,2013-04-09 17:44:00,
2013-04-09 13:49:00,86.7,62.2,29.86,East,90,4.5,6.9,44,0.00,,,0.00,WUHU216EASYWX,2013-04-09 17:49:00,
2013-04-09 13:54:00,86.7,62.2,29.86,SE,135,1.6,4.5,44,0.00,,,0.00,WUHU216EASYWX,2013-04-09 17:54:00,
2013-04-09 13:59:00,86.7,62.2,29.86,SE,135,1.6,4.5,44,0.00,,,0.00,WUHU216EASYWX,2013-04-09 17:59:00,
2013-04-09 14:09:00,86.7,63.0,29.86,NE,45,1.6,3.1,45,0.00,,,0.00,WUHU216EASYWX,2013-04-09 18:09:00,
2013-04-09 14:14:00,87.4,62.2,29.85,ENE,68,7.6,12.1,43,0.00,,,0.00,WUHU216EASYWX,2013-04-09 18:14:00,
2013-04-09 14:19:00,87.4,62.2,29.85,ENE,68,7.6,12.1,43,0.00,,,0.00,WUHU216EASYWX,2013-04-09 18:19:00,
2013-04-09 14:24:00,87.3,62.1,29.85,SE,135,6.0,9.9,43,0.00,,,0.00,WUHU216EASYWX,2013-04-09 18:24:00,
2013-04-09 14:29:00,87.3,62.1,29.85,SE,135,6.0,9.9,43,0.00,,,0.00,WUHU216EASYWX,2013-04-09 18:29:00,
2013-04-09 14:34:00,86.0,61.0,29.85,SE,135,3.8,8.3,43,0.00,,,0.00,WUHU216EASYWX,2013-04-09 18:34:00,
2013-04-09 14:39:00,86.0,61.0,29.85,SE,135,3.8,8.3,43,0.00,,,0.00,WUHU216EASYWX,2013-04-09 18:39:00,
2013-04-09 14:49:00,86.7,61.0,29.85,SE,135,5.4,7.6,42,0.00,,,0.00,WUHU216EASYWX,2013-04-09 18:49:00,
2013-04-09 14:54:00,86.5,60.8,29.85,SE,135,6.0,9.2,42,0.00,,,0.00,WUHU216EASYWX,2013-04-09 18:54:00,
2013-04-09 14:59:00,86.5,60.8,29.85,SE,135,6.0,9.2,42,0.00,,,0.00,WUHU216EASYWX,2013-04-09 18:59:00,
2013-04-09 15:04:00,87.8,59.9,29.84,South,180,3.8,5.4,39,0.00,,,0.00,WUHU216EASYWX,2013-04-09 19:04:00,
2013-04-09 15:09:00,87.8,59.9,29.84,South,180,3.8,5.4,39,0.00,,,0.00,WUHU216EASYWX,2013-04-09 19:09:00,
2013-04-09 15:15:00,88.0,59.2,29.84,East,90,3.8,8.3,38,0.00,,,0.00,WUHU216EASYWX,2013-04-09 19:15:00,
2013-04-09 15:20:00,88.0,59.2,29.84,East,90,3.8,8.3,38,0.00,,,0.00,WUHU216EASYWX,2013-04-09 19:20:00,
2013-04-09 15:25:00,86.5,60.8,29.84,SE,135,3.8,5.4,42,0.00,,,0.00,WUHU216EASYWX,2013-04-09 19:25:00,
2013-04-09 15:30:00,86.5,60.8,29.84,SE,135,3.8,5.4,42,0.00,,,0.00,WUHU216EASYWX,2013-04-09 19:30:00,
2013-04-09 15:39:00,86.7,59.5,29.83,SE,135,2.2,4.5,40,0.00,,,0.00,WUHU216EASYWX,2013-04-09 19:39:00,
2013-04-09 15:44:00,87.4,59.5,29.83,South,180,2.2,9.9,39,0.00,,,0.00,WUHU216EASYWX,2013-04-09 19:44:00,
2013-04-09 15:49:00,87.4,59.5,29.83,South,180,2.2,9.9,39,0.00,,,0.00,WUHU216EASYWX,2013-04-09 19:49:00,
2013-04-09 15:54:00,88.7,58.5,29.83,NE,45,2.2,4.5,36,0.00,,,0.00,WUHU216EASYWX,2013-04-09 19:54:00,
2013-04-09 15:59:00,88.7,58.5,29.83,NE,45,2.2,4.5,36,0.00,,,0.00,WUHU216EASYWX,2013-04-09 19:59:00,
2013-04-09 16:04:00,90.9,56.1,29.83,SE,135,4.5,9.9,31,0.00,,,0.00,WUHU216EASYWX,2013-04-09 20:04:00,
2013-04-09 16:09:00,90.9,56.1,29.83,SE,135,4.5,9.9,31,0.00,,,0.00,WUHU216EASYWX,2013-04-09 20:09:00,
2013-04-09 16:19:00,88.9,58.5,29.82,SE,135,3.8,6.9,36,0.00,,,0.00,WUHU216EASYWX,2013-04-09 20:19:00,
2013-04-09 16:24:00,87.1,61.3,29.82,East,90,8.3,13.0,42,0.00,,,0.00,WUHU216EASYWX,2013-04-09 20:24:00,
2013-04-09 16:29:00,87.1,61.3,29.82,East,90,8.3,13.0,42,0.00,,,0.00,WUHU216EASYWX,2013-04-09 20:29:00,
2013-04-09 16:34:00,87.4,61.5,29.82,NE,45,8.3,11.4,42,0.00,,,0.00,WUHU216EASYWX,2013-04-09 20:34:00,
2013-04-09 16:39:00,87.4,61.5,29.82,NE,45,8.3,11.4,42,0.00,,,0.00,WUHU216EASYWX,2013-04-09 20:39:00,
2013-04-09 16:44:00,87.1,61.3,29.82,SW,225,3.1,5.4,42,0.00,,,0.00,WUHU216EASYWX,2013-04-09 20:44:00,
2013-04-09 16:49:00,87.1,61.3,29.82,SW,225,3.1,5.4,42,0.00,,,0.00,WUHU216EASYWX,2013-04-09 20:49:00,
2013-04-09 16:54:00,86.7,60.3,29.82,NE,45,3.1,6.0,41,0.00,,,0.00,WUHU216EASYWX,2013-04-09 20:54:00,
2013-04-09 16:59:00,86.7,60.3,29.82,NE,45,3.1,6.0,41,0.00,,,0.00,WUHU216EASYWX,2013-04-09 20:59:00,
2013-04-09 17:09:00,86.4,61.9,29.82,SE,135,2.2,6.0,44,0.00,,,0.00,WUHU216EASYWX,2013-04-09 21:09:00,
2013-04-09 17:14:00,87.1,63.3,29.82,SE,135,1.6,6.0,45,0.00,,,0.00,WUHU216EASYWX,2013-04-09 21:14:00,
2013-04-09 17:19:00,87.1,63.3,29.82,SE,135,1.6,3.1,45,0.00,,,0.00,WUHU216EASYWX,2013-04-09 21:19:00,
2013-04-09 17:24:00,88.0,62.8,29.83,NE,45,0.7,2.2,43,0.00,,,0.00,WUHU216EASYWX,2013-04-09 21:24:00,
2013-04-09 17:29:00,88.0,62.8,29.83,NE,45,0.7,2.2,43,0.00,,,0.00,WUHU216EASYWX,2013-04-09 21:29:00,
2013-04-09 17:35:00,83.1,67.8,29.83,West,270,3.8,6.9,60,0.00,,,0.00,WUHU216EASYWX,2013-04-09 21:35:00,
2013-04-09 17:40:00,83.1,67.8,29.83,West,270,3.8,6.9,60,0.00,,,0.00,WUHU216EASYWX,2013-04-09 21:40:00,
2013-04-09 17:45:00,81.5,67.8,29.83,West,270,4.5,6.9,63,0.00,,,0.00,WUHU216EASYWX,2013-04-09 21:45:00,
2013-04-09 17:50:00,81.5,67.8,29.83,West,270,4.5,6.9,63,0.00,,,0.00,WUHU216EASYWX,2013-04-09 21:50:00,
2013-04-09 17:59:00,80.6,67.3,29.82,West,270,6.0,9.2,64,0.00,,,0.00,WUHU216EASYWX,2013-04-09 21:59:00,
2013-04-09 18:04:00,80.4,66.7,29.83,West,270,6.9,9.9,63,0.00,,,0.00,WUHU216EASYWX,2013-04-09 22:04:00,
2013-04-09 18:09:00,80.4,66.7,29.83,West,270,6.9,9.9,63,0.00,,,0.00,WUHU216EASYWX,2013-04-09 22:09:00,
2013-04-09 18:14:00,80.4,66.7,29.83,SW,225,3.8,6.0,63,0.00,,,0.00,WUHU216EASYWX,2013-04-09 22:14:00,
2013-04-09 18:19:00,80.4,66.7,29.83,SW,225,3.8,6.0,63,0.00,,,0.00,WUHU216EASYWX,2013-04-09 22:19:00,
2013-04-09 18:24:00,80.2,66.0,29.83,WNW,293,3.8,5.4,62,0.00,,,0.00,WUHU216EASYWX,2013-04-09 22:24:00,
2013-04-09 18:29:00,80.2,66.0,29.83,WNW,293,3.8,5.4,62,0.00,,,0.00,WUHU216EASYWX,2013-04-09 22:29:00,
2013-04-09 18:34:00,79.9,65.8,29.83,WNW,293,3.1,3.8,62,0.00,,,0.00,WUHU216EASYWX,2013-04-09 22:34:00,
2013-04-09 18:40:00,79.9,65.8,29.83,WNW,293,3.1,3.8,62,0.00,,,0.00,WUHU216EASYWX,2013-04-09 22:40:00,
2013-04-09 18:49:00,79.5,64.9,29.83,NW,315,3.8,5.4,61,0.00,,,0.00,WUHU216EASYWX,2013-04-09 22:49:00,
2013-04-09 18:54:00,79.5,64.4,29.83,SW,225,0.7,5.4,60,0.00,,,0.00,WUHU216EASYWX,2013-04-09 22:54:00,
2013-04-09 18:59:00,79.5,64.4,29.83,SW,225,0.7,2.2,60,0.00,,,0.00,WUHU216EASYWX,2013-04-09 22:59:00,
2013-04-09 19:04:00,79.5,64.9,29.83,East,90,0.7,4.5,61,0.00,,,0.00,WUHU216EASYWX,2013-04-09 23:04:00,
2013-04-09 19:09:00,79.5,64.9,29.83,East,90,0.7,4.5,61,0.00,,,0.00,WUHU216EASYWX,2013-04-09 23:09:00,
2013-04-09 19:14:00,79.5,64.9,29.83,East,90,0.7,3.8,61,0.00,,,0.00,WUHU216EASYWX,2013-04-09 23:14:00,
2013-04-09 19:19:00,79.5,64.9,29.83,East,90,0.7,3.8,61,0.00,,,0.00,WUHU216EASYWX,2013-04-09 23:19:00,
2013-04-09 19:24:00,79.9,65.3,29.83,East,90,2.2,6.0,61,0.00,,,0.00,WUHU216EASYWX,2013-04-09 23:24:00,
2013-04-09 19:29:00,79.9,65.3,29.83,East,90,2.2,6.0,61,0.00,,,0.00,WUHU216EASYWX,2013-04-09 23:29:00,
2013-04-09 19:39:00,79.9,64.4,29.84,East,90,6.0,13.7,59,0.00,,,0.00,WUHU216EASYWX,2013-04-09 23:39:00,
2013-04-09 19:44:00,79.3,65.3,29.84,East,90,4.5,7.6,62,0.00,,,0.00,WUHU216EASYWX,2013-04-09 23:44:00,
2013-04-09 19:49:00,79.3,65.3,29.84,East,90,4.5,7.6,62,0.00,,,0.00,WUHU216EASYWX,2013-04-09 23:49:00,
2013-04-09 19:54:00,79.0,65.3,29.84,East,90,3.8,9.9,63,0.00,,,0.00,WUHU216EASYWX,2013-04-09 23:54:00,
2013-04-09 19:59:00,79.0,65.3,29.84,East,90,3.8,9.9,63,0.00,,,0.00,WUHU216EASYWX,2013-04-09 23:59:00,
2013-04-09 20:04:00,78.8,64.8,29.84,East,90,7.6,10.8,62,0.00,,,0.00,WUHU216EASYWX,2013-04-10 00:04:00,
2013-04-09 20:09:00,78.8,64.8,29.84,East,90,7.6,10.8,62,0.00,,,0.00,WUHU216EASYWX,2013-04-10 00:09:00,
2013-04-09 20:19:00,78.8,64.8,29.84,East,90,4.5,7.6,62,0.00,,,0.00,WUHU216EASYWX,2013-04-10 00:19:00,
2013-04-09 20:24:00,78.6,64.9,29.85,North,0,4.5,10.8,63,0.00,,,0.00,WUHU216EASYWX,2013-04-10 00:24:00,
2013-04-09 20:29:00,78.6,64.9,29.85,North,0,4.5,10.8,63,0.00,,,0.00,WUHU216EASYWX,2013-04-10 00:29:00,
2013-04-09 20:34:00,78.4,65.3,29.85,East,90,7.6,12.1,64,0.00,,,0.00,WUHU216EASYWX,2013-04-10 00:34:00,
2013-04-09 20:39:00,78.4,65.3,29.85,East,90,7.6,12.1,64,0.00,,,0.00,WUHU216EASYWX,2013-04-10 00:39:00,
2013-04-09 20:44:00,78.3,65.1,29.85,NNW,338,6.9,12.1,64,0.00,,,0.00,WUHU216EASYWX,2013-04-10 00:44:00,
2013-04-09 20:49:00,78.3,65.1,29.85,NNW,338,6.9,12.1,64,0.00,,,0.00,WUHU216EASYWX,2013-04-10 00:49:00,
2013-04-09 20:54:00,77.9,65.3,29.85,East,90,3.8,5.4,65,0.00,,,0.00,WUHU216EASYWX,2013-04-10 00:54:00,
2013-04-09 20:59:00,77.9,65.3,29.85,East,90,3.8,5.4,65,0.00,,,0.00,WUHU216EASYWX,2013-04-10 00:59:00,
2013-04-09 21:09:00,77.5,64.9,29.85,East,90,3.8,7.6,65,0.00,,,0.00,WUHU216EASYWX,2013-04-10 01:09:00,
2013-04-09 21:14:00,77.4,65.1,29.85,ENE,68,2.2,7.6,66,0.00,,,0.00,WUHU216EASYWX,2013-04-10 01:14:00,
2013-04-09 21:19:00,77.4,65.1,29.85,ENE,68,2.2,6.9,66,0.00,,,0.00,WUHU216EASYWX,2013-04-10 01:19:00,
2013-04-09 21:24:00,77.0,65.3,29.85,SE,135,2.2,4.5,67,0.00,,,0.00,WUHU216EASYWX,2013-04-10 01:24:00,
2013-04-09 21:29:00,77.0,65.3,29.85,SE,135,2.2,4.5,67,0.00,,,0.00,WUHU216EASYWX,2013-04-10 01:29:00,
2013-04-09 21:34:00,76.8,65.5,29.86,SE,135,4.5,11.4,68,0.00,,,0.00,WUHU216EASYWX,2013-04-10 01:34:00,
2013-04-09 21:39:00,76.8,65.5,29.86,SE,135,4.5,11.4,68,0.00,,,0.00,WUHU216EASYWX,2013-04-10 01:39:00,
2013-04-09 21:44:00,76.6,65.8,29.87,East,90,3.8,6.0,69,0.00,,,0.00,WUHU216EASYWX,2013-04-10 01:44:00,
2013-04-09 21:49:00,76.6,65.8,29.87,East,90,3.8,6.0,69,0.00,,,0.00,WUHU216EASYWX,2013-04-10 01:49:00,
2013-04-09 21:59:00,76.3,65.8,29.87,East,90,4.5,8.3,70,0.00,,,0.00,WUHU216EASYWX,2013-04-10 01:59:00,
2013-04-09 22:04:00,76.1,66.0,29.87,NE,45,5.4,9.9,71,0.00,,,0.00,WUHU216EASYWX,2013-04-10 02:04:00,
2013-04-09 22:09:00,76.1,66.0,29.87,NE,45,5.4,9.9,71,0.00,,,0.00,WUHU216EASYWX,2013-04-10 02:09:00,
2013-04-09 22:14:00,75.7,66.6,29.87,East,90,7.6,12.1,73,0.00,,,0.00,WUHU216EASYWX,2013-04-10 02:14:00,
2013-04-09 22:19:00,75.7,66.6,29.87,East,90,7.6,12.1,73,0.00,,,0.00,WUHU216EASYWX,2013-04-10 02:19:00,
2013-04-09 22:24:00,75.6,66.4,29.87,East,90,1.6,5.4,73,0.00,,,0.00,WUHU216EASYWX,2013-04-10 02:24:00,
2013-04-09 22:29:00,75.6,66.4,29.87,East,90,1.6,5.4,73,0.00,,,0.00,WUHU216EASYWX,2013-04-10 02:29:00,
2013-04-09 22:34:00,75.2,66.7,29.87,NE,45,4.5,9.9,75,0.00,,,0.00,WUHU216EASYWX,2013-04-10 02:34:00,
2013-04-09 22:39:00,75.2,66.7,29.87,NE,45,4.5,9.9,75,0.00,,,0.00,WUHU216EASYWX,2013-04-10 02:39:00,
2013-04-09 22:49:00,75.0,66.9,29.88,NE,45,3.8,8.3,76,0.00,,,0.00,WUHU216EASYWX,2013-04-10 02:49:00,
2013-04-09 22:54:00,74.8,67.6,29.87,East,90,6.9,13.0,78,0.00,,,0.00,WUHU216EASYWX,2013-04-10 02:54:00,
2013-04-09 22:59:00,74.8,67.6,29.87,East,90,6.9,13.0,78,0.00,,,0.00,WUHU216EASYWX,2013-04-10 02:59:00,
2013-04-09 23:04:00,74.7,67.8,29.88,South,180,3.8,12.1,79,0.00,,,0.00,WUHU216EASYWX,2013-04-10 03:04:00,
2013-04-09 23:09:00,74.7,67.8,29.88,South,180,3.8,12.1,79,0.00,,,0.00,WUHU216EASYWX,2013-04-10 03:09:00,
2013-04-09 23:14:00,74.3,68.2,29.88,East,90,5.4,9.9,81,0.00,,,0.00,WUHU216EASYWX,2013-04-10 03:14:00,
2013-04-09 23:19:00,74.3,68.2,29.88,East,90,5.4,9.9,81,0.00,,,0.00,WUHU216EASYWX,2013-04-10 03:19:00,
2013-04-09 23:29:00,74.1,68.7,29.88,NE,45,3.8,8.3,83,0.00,,,0.00,WUHU216EASYWX,2013-04-10 03:29:00,
2013-04-09 23:34:00,73.8,68.7,29.88,East,90,3.1,5.4,84,0.00,,,0.00,WUHU216EASYWX,2013-04-10 03:34:00,
2013-04-09 23:39:00,73.8,68.7,29.88,East,90,3.1,5.4,84,0.00,,,0.00,WUHU216EASYWX,2013-04-10 03:39:00,
2013-04-09 23:44:00,73.4,68.4,29.88,ENE,68,2.2,5.4,84,0.00,,,0.00,WUHU216EASYWX,2013-04-10 03:44:00,
2013-04-09 23:49:00,73.4,68.4,29.88,ENE,68,2.2,5.4,84,0.00,,,0.00,WUHU216EASYWX,2013-04-10 03:49:00,
2013-04-09 23:54:00,73.2,68.5,29.88,NE,45,5.4,8.3,85,0.00,,,0.00,WUHU216EASYWX,2013-04-10 03:54:00,
2013-04-09 23:59:00,73.2,68.5,29.88,NE,45,5.4,8.3,85,0.00,,,0.00,WUHU216EASYWX,2013-04-10 03:59:00,